Time;durP1;ratioP1;P1;durP2;ratioP2;P2;SDS_P1;SDS_P2;PMS_P1;PMS_P2;Temp;Humidity;BMP_temperature;BMP_pressure;BME280_temperature;BME280_humidity;BME280_pressure;Samples;Min_cycle;Max_cycle;Signal;HPM_P1;HPM_P2
2022/05/29 00:02:17;;;;;;;15.40;6.90;;;;;;;18.24;48.26;99042.93;25093;1316;3027349;-68
2022/05/29 00:04:47;;;;;;;15.80;5.80;;;;;;;18.25;48.87;99045.27;25116;1316;3028885;-69
2022/05/29 00:07:17;;;;;;;14.30;5.80;;;;;;;18.22;49.36;99045.95;25091;1315;3029628;-71
2022/05/29 00:09:48;;;;;;;19.10;5.50;;;;;;;18.17;49.76;99047.33;25082;1316;3027132;-66
2022/05/29 00:12:17;;;;;;;14.00;6.10;;;;;;;18.10;50.77;99050.53;25119;1316;3028142;-69
2022/05/29 00:14:50;;;;;;;15.30;5.90;;;;;;;18.04;51.39;99046.71;25137;1316;3028239;-66
2022/05/29 00:17:20;;;;;;;16.80;6.60;;;;;;;17.99;52.37;99045.34;25090;1316;3028486;-68
2022/05/29 00:19:50;;;;;;;17.40;7.10;;;;;;;17.95;52.34;99042.97;25098;1315;3028797;-66
2022/05/29 00:22:20;;;;;;;14.80;6.00;;;;;;;17.93;52.55;99041.55;25104;1315;3026566;-68
2022/05/29 00:24:51;;;;;;;14.80;6.30;;;;;;;17.93;52.01;99042.27;25068;1319;3027244;-67
2022/05/29 00:27:23;;;;;;;20.70;8.00;;;;;;;17.95;51.64;99042.41;25146;1315;3028505;-65
2022/05/29 00:29:53;;;;;;;22.80;8.40;;;;;;;17.96;51.82;99039.10;25121;1316;3026142;-66
2022/05/29 00:32:23;;;;;;;29.60;10.40;;;;;;;17.94;51.75;99035.39;25106;1316;3027059;-68
2022/05/29 00:34:53;;;;;;;21.50;9.60;;;;;;;17.89;52.69;99030.37;25118;1316;3026757;-67
2022/05/29 00:37:23;;;;;;;21.90;8.90;;;;;;;17.85;52.63;99033.27;25121;1314;3026925;-65
2022/05/29 00:39:53;;;;;;;20.10;9.40;;;;;;;17.82;53.03;99034.47;25049;1317;3027178;-66
2022/05/29 00:42:25;;;;;;;19.30;8.20;;;;;;;17.77;52.90;99039.48;25113;1316;3026313;-68
2022/05/29 00:44:54;;;;;;;25.70;8.70;;;;;;;17.74;53.02;99040.31;25072;1316;3028681;-68
2022/05/29 00:47:27;;;;;;;27.00;9.30;;;;;;;17.73;53.23;99040.81;25087;1316;3027255;-68
2022/05/29 00:49:58;;;;;;;29.70;9.00;;;;;;;17.70;53.39;99037.20;25116;1316;3026636;-67
2022/05/29 00:52:29;;;;;;;26.30;8.30;;;;;;;17.67;53.92;99036.60;25094;1316;3027542;-68
2022/05/29 00:55:00;;;;;;;21.80;8.90;;;;;;;17.65;54.16;99034.12;25090;1316;3026424;-70
2022/05/29 00:57:45;;;;;;;21.00;8.30;;;;;;;17.65;53.85;99032.14;25106;1316;3028878;-67
2022/05/29 01:00:18;;;;;;;21.30;8.10;;;;;;;17.64;54.17;99023.27;25151;1314;3054288;-64
2022/05/29 01:02:47;;;;;;;17.80;7.30;;;;;;;17.63;53.99;99020.69;25125;1315;3026320;-67
2022/05/29 01:05:17;;;;;;;18.60;7.20;;;;;;;17.65;53.73;99023.52;25082;1315;3026479;-66
2022/05/29 01:07:54;;;;;;;15.60;6.70;;;;;;;17.66;53.54;99025.34;25136;1316;3028656;-66
2022/05/29 01:10:30;;;;;;;15.70;6.40;;;;;;;17.67;53.16;99023.35;25083;1316;3055430;-65
2022/05/29 01:13:00;;;;;;;15.90;6.50;;;;;;;17.61;52.66;99027.02;25146;1316;3053382;-66
2022/05/29 01:15:51;;;;;;;19.30;6.20;;;;;;;17.59;52.71;99033.80;25100;1316;3029683;-69
2022/05/29 01:18:51;;;;;;;14.80;6.50;;;;;;;17.55;52.51;99040.05;25101;1316;3050521;-68
2022/05/29 01:21:39;;;;;;;20.40;7.20;;;;;;;17.46;53.71;99046.76;25126;1315;3055598;-70
2022/05/29 01:24:19;;;;;;;21.00;7.10;;;;;;;17.46;53.45;99043.17;25091;1316;3053823;-62
2022/05/29 01:27:01;;;;;;;24.00;7.50;;;;;;;17.47;53.63;99044.32;25103;1315;3074251;-64
2022/05/29 01:29:32;;;;;;;19.80;7.40;;;;;;;17.51;53.08;99039.35;25082;1315;3051274;-66
2022/05/29 01:32:10;;;;;;;21.00;7.10;;;;;;;17.53;52.96;99038.85;25144;1316;3028935;-70
2022/05/29 01:34:46;;;;;;;18.70;6.90;;;;;;;17.53;52.87;99047.36;25093;1315;3052090;-67
2022/05/29 01:37:40;;;;;;;21.10;7.70;;;;;;;17.52;52.69;99056.92;25107;1315;3059149;-69
2022/05/29 01:40:22;;;;;;;14.80;6.90;;;;;;;17.52;53.13;99061.59;25090;1315;3051019;-69
2022/05/29 01:42:53;;;;;;;20.10;6.70;;;;;;;17.49;52.51;99067.73;25084;1316;3055465;-69
2022/05/29 01:45:55;;;;;;;21.80;7.00;;;;;;;17.42;52.86;99068.87;25078;1316;3026182;-66
2022/05/29 01:48:30;;;;;;;15.40;6.20;;;;;;;17.36;53.20;99072.86;25054;1316;3069163;-70
2022/05/29 01:51:05;;;;;;;23.50;6.80;;;;;;;17.37;52.84;99072.02;25112;1316;3051985;-68
2022/05/29 01:53:38;;;;;;;21.00;6.50;;;;;;;17.42;52.91;99066.61;25085;1316;3054916;-68
2022/05/29 01:56:28;;;;;;;23.00;7.00;;;;;;;17.44;52.57;99064.29;25129;1316;3026540;-68
2022/05/29 01:59:00;;;;;;;14.40;6.70;;;;;;;17.47;52.42;99066.45;25100;1315;3057417;-68
2022/05/29 02:01:35;;;;;;;25.20;7.20;;;;;;;17.49;52.11;99077.26;25098;1315;3026297;-68
2022/05/29 02:04:08;;;;;;;16.10;7.00;;;;;;;17.51;51.89;99071.27;25108;1316;3053650;-72
2022/05/29 02:09:35;;;;;;;16.70;7.40;;;;;;;17.51;51.95;99071.39;25081;1316;3070474;-67
2022/05/29 02:12:10;;;;;;;18.00;6.70;;;;;;;17.51;52.12;99064.48;25104;1316;3048851;-66
2022/05/29 02:14:48;;;;;;;16.50;7.50;;;;;;;17.54;51.82;99063.02;25040;1315;3051302;-68
2022/05/29 02:17:22;;;;;;;27.70;11.00;;;;;;;17.56;51.84;99057.48;25125;1316;3056541;-66
2022/05/29 02:20:03;;;;;;;21.70;7.20;;;;;;;17.57;51.77;99059.36;25110;1316;3059233;-69
2022/05/29 02:22:36;;;;;;;19.60;6.80;;;;;;;17.55;52.35;99061.98;25106;1316;3050426;-67
2022/05/29 02:25:16;;;;;;;19.20;6.90;;;;;;;17.55;52.66;99069.60;25103;1315;3026751;-69
2022/05/29 02:27:55;;;;;;;15.70;6.00;;;;;;;17.52;52.97;99071.16;25114;1315;3053839;-63
2022/05/29 02:30:28;;;;;;;15.20;6.00;;;;;;;17.50;52.70;99072.54;25125;1316;3071824;-67
2022/05/29 02:33:27;;;;;;;13.00;5.40;;;;;;;17.50;52.49;99070.94;25119;1316;3049978;-67
2022/05/29 02:36:29;;;;;;;13.10;5.60;;;;;;;17.49;52.55;99072.45;25116;1316;3055122;-65
2022/05/29 02:39:20;;;;;;;17.50;5.40;;;;;;;17.51;51.89;99071.27;25086;1316;3055009;-66
2022/05/29 02:41:57;;;;;;;13.30;5.10;;;;;;;17.53;51.79;99076.55;25076;1316;3059184;-68
2022/05/29 02:44:37;;;;;;;17.70;4.40;;;;;;;17.55;51.57;99086.74;25105;1316;3052853;-68
2022/05/29 02:47:36;;;;;;;10.90;4.50;;;;;;;17.54;51.43;99093.27;25084;1316;3053688;-68
2022/05/29 02:50:18;;;;;;;11.70;4.80;;;;;;;17.50;51.25;99107.67;25109;1316;3052915;-63
2022/05/29 02:52:53;;;;;;;15.50;5.50;;;;;;;17.37;52.72;99116.27;25084;1316;3068957;-66
2022/05/29 02:55:23;;;;;;;15.20;5.50;;;;;;;17.28;52.79;99118.40;25099;1315;3026610;-69
2022/05/29 02:57:59;;;;;;;15.40;5.20;;;;;;;17.25;52.81;99113.50;25087;1319;3026275;-69
2022/05/29 03:01:07;;;;;;;14.70;4.90;;;;;;;17.31;52.83;99101.80;25092;1315;3026638;-67
2022/05/29 03:03:59;;;;;;;19.00;4.80;;;;;;;17.38;53.19;99088.91;25104;1316;3059182;-66
2022/05/29 03:06:50;;;;;;;16.50;6.20;;;;;;;17.41;54.09;99094.27;25103;1316;3049607;-64
2022/05/29 03:09:57;;;;;;;13.50;5.80;;;;;;;17.42;54.72;99099.98;25098;1316;3054239;-65
2022/05/29 03:12:36;;;;;;;11.50;5.80;;;;;;;17.38;54.63;99114.59;25072;1316;3054314;-69
2022/05/29 03:15:20;;;;;;;12.80;5.90;;;;;;;17.38;55.32;99127.36;25150;1316;3068060;-72
2022/05/29 03:17:59;;;;;;;14.40;6.50;;;;;;;17.33;55.85;99128.37;25115;1316;3052017;-71
2022/05/29 03:20:46;;;;;;;12.40;5.10;;;;;;;17.26;55.97;99103.83;25131;1315;3054960;-66
2022/05/29 03:23:44;;;;;;;17.60;6.00;;;;;;;17.24;54.62;99102.27;25068;1316;3052687;-68
2022/05/29 03:26:24;;;;;;;17.60;6.90;;;;;;;17.25;55.58;99107.86;25057;1316;3056536;-66
2022/05/29 03:29:05;;;;;;;23.80;7.00;;;;;;;17.25;55.60;99117.98;25092;1315;3052036;-69
2022/05/29 03:31:34;;;;;;;12.40;5.80;;;;;;;17.23;55.86;99122.40;25105;1316;3055959;-69
2022/05/29 03:34:04;;;;;;;14.80;5.80;;;;;;;17.25;55.63;99124.54;25072;1316;3027061;-71
2022/05/29 03:36:33;;;;;;;15.90;5.70;;;;;;;17.26;55.61;99118.23;25086;1315;3025986;-64
2022/05/29 03:39:03;;;;;;;27.40;6.90;;;;;;;17.27;55.32;99114.19;25070;1315;3026675;-64
2022/05/29 03:41:43;;;;;;;19.00;6.40;;;;;;;17.25;55.02;99110.98;25119;1315;3026372;-65
2022/05/29 03:44:16;;;;;;;17.10;6.30;;;;;;;17.28;54.70;99117.83;25072;1316;3055650;-72
2022/05/29 03:46:45;;;;;;;17.50;7.10;;;;;;;17.25;54.82;99131.20;25128;1316;3028797;-67
2022/05/29 03:49:16;;;;;;;19.00;7.60;;;;;;;17.25;54.86;99152.93;25078;1315;3027258;-65
2022/05/29 03:51:46;;;;;;;29.70;8.10;;;;;;;17.17;55.75;99174.78;25110;1316;3026473;-66
2022/05/29 03:54:16;;;;;;;28.40;8.70;;;;;;;17.04;55.49;99176.02;25112;1315;3026636;-68
2022/05/29 03:56:45;;;;;;;25.50;7.80;;;;;;;16.79;56.11;99174.36;25033;1316;3027049;-70
2022/05/29 03:59:17;;;;;;;28.70;9.70;;;;;;;16.71;56.61;99167.08;25145;1315;3027115;-67
2022/05/29 04:01:49;;;;;;;28.10;9.60;;;;;;;16.85;56.86;99158.71;25142;1315;3051820;-68
2022/05/29 04:04:18;;;;;;;24.60;9.70;;;;;;;16.97;56.79;99155.94;25101;1316;3026168;-71
2022/05/29 04:06:50;;;;;;;20.90;8.70;;;;;;;17.03;57.06;99158.70;25090;1315;3027092;-66
2022/05/29 04:12:13;;;;;;;23.40;7.80;;;;;;;17.07;56.20;99173.00;25106;1316;3055295;-68
2022/05/29 04:14:44;;;;;;;27.20;8.70;;;;;;;17.04;56.25;99181.50;25132;1316;3028437;-66
2022/05/29 04:17:16;;;;;;;18.30;7.30;;;;;;;16.98;56.78;99178.69;25257;1315;3026784;-64
2022/05/29 04:19:47;;;;;;;19.70;9.10;;;;;;;17.06;56.40;99166.92;25188;1318;3027616;-68
2022/05/29 04:22:18;;;;;;;31.60;12.10;;;;;;;17.10;56.62;99173.86;25090;1315;3028327;-68
2022/05/29 04:24:48;;;;;;;29.60;11.50;;;;;;;17.13;56.61;99188.08;25103;1315;3026825;-64
2022/05/29 04:27:17;;;;;;;31.40;13.00;;;;;;;17.02;56.91;99199.12;25103;1316;3028015;-69
2022/05/29 04:29:46;;;;;;;33.30;14.50;;;;;;;16.81;57.05;99197.29;25134;1316;3053685;-65
2022/05/29 04:35:04;;;;;;;35.60;14.00;;;;;;;16.69;57.67;99193.59;25103;1315;3049528;-66
2022/05/29 04:37:35;;;;;;;34.00;11.40;;;;;;;16.71;57.66;99189.21;25136;1316;3026359;-69
2022/05/29 04:40:05;;;;;;;26.90;10.70;;;;;;;16.73;56.87;99194.69;25091;1316;3026856;-68
2022/05/29 04:42:38;;;;;;;;;;;;;;;16.82;56.58;99194.21;25139;1314;3049384;-66
2022/05/29 04:45:07;;;;;;;27.20;9.70;;;;;;;16.84;56.44;99180.81;25126;1316;3026507;-65
2022/05/29 04:47:40;;;;;;;25.30;9.90;;;;;;;16.85;55.98;99169.23;25107;1316;3069503;-64
2022/05/29 04:50:10;;;;;;;27.10;9.80;;;;;;;16.86;55.63;99155.80;25100;1316;3051578;-71
2022/05/29 04:52:40;;;;;;;18.80;7.90;;;;;;;16.90;55.21;99158.48;25114;1315;3026183;-68
2022/05/29 04:55:10;;;;;;;21.70;8.20;;;;;;;16.92;55.11;99159.52;25114;1316;3027444;-67
2022/05/29 04:57:40;;;;;;;21.50;7.40;;;;;;;16.95;55.27;99169.05;25102;1316;3028422;-68
2022/05/29 05:00:10;;;;;;;23.60;8.00;;;;;;;16.99;55.08;99176.24;25076;1316;3026766;-68
2022/05/29 05:02:40;;;;;;;19.90;7.60;;;;;;;16.96;55.13;99183.03;25092;1315;3028259;-70
2022/05/29 05:05:09;;;;;;;20.20;7.10;;;;;;;16.91;54.80;99187.05;25094;1315;3026476;-62
2022/05/29 05:07:46;;;;;;;32.60;11.00;;;;;;;16.66;56.49;99196.39;25113;1316;3071315;-64
2022/05/29 05:10:17;;;;;;;23.70;9.90;;;;;;;16.13;59.12;99209.55;25099;1316;3028482;-68
2022/05/29 05:12:50;;;;;;;28.10;10.00;;;;;;;16.12;59.15;99193.73;25125;1315;3051749;-69
2022/05/29 05:15:19;;;;;;;21.00;8.70;;;;;;;16.27;58.04;99186.91;25078;1315;3026399;-69
2022/05/29 05:17:52;;;;;;;23.30;8.80;;;;;;;16.26;57.82;99178.20;25117;1315;3028286;-69
2022/05/29 05:20:21;;;;;;;26.00;8.90;;;;;;;16.17;58.22;99178.65;25132;1316;3028274;-66
2022/05/29 05:22:54;;;;;;;25.90;8.50;;;;;;;16.15;58.12;99180.61;25096;1315;3028746;-68
2022/05/29 05:25:24;;;;;;;24.60;8.40;;;;;;;16.17;58.20;99175.67;25096;1315;3026454;-66
2022/05/29 05:27:54;;;;;;;26.50;8.50;;;;;;;16.18;58.12;99181.95;25113;1316;3026697;-71
2022/05/29 05:30:24;;;;;;;22.30;7.50;;;;;;;16.16;57.49;99189.32;25095;1316;3028515;-66
2022/05/29 05:32:54;;;;;;;18.70;7.40;;;;;;;16.08;57.35;99193.02;25154;1316;3026828;-69
2022/05/29 05:35:23;;;;;;;22.30;6.80;;;;;;;16.00;57.29;99192.16;25136;1315;3029272;-68
2022/05/29 05:37:56;;;;;;;25.90;6.00;;;;;;;15.95;56.67;99194.15;25052;1315;3026845;-69
2022/05/29 05:40:25;;;;;;;14.80;6.10;;;;;;;15.99;56.88;99195.73;25093;1314;3027733;-66
2022/05/29 05:42:55;;;;;;;15.90;5.90;;;;;;;16.01;56.83;99195.94;25101;1316;3029863;-68
2022/05/29 05:45:25;;;;;;;16.80;5.70;;;;;;;16.00;56.80;99199.33;25120;1314;3057445;-68
2022/05/29 05:47:55;;;;;;;16.90;6.10;;;;;;;15.98;56.71;99202.77;25119;1315;3028614;-66
2022/05/29 05:50:26;;;;;;;20.80;6.60;;;;;;;15.98;56.29;99211.88;25107;1316;3026597;-72
2022/05/29 05:52:58;;;;;;;19.00;5.60;;;;;;;15.91;56.65;99214.44;25108;1316;3026901;-68
2022/05/29 05:55:27;;;;;;;15.40;5.10;;;;;;;15.91;56.94;99215.86;25139;1316;3026583;-70
2022/05/29 05:57:57;;;;;;;14.30;5.00;;;;;;;16.04;56.31;99217.19;25126;1316;3026773;-66
2022/05/29 06:00:26;;;;;;;9.80;5.20;;;;;;;15.99;56.00;99222.42;25075;1316;3027531;-69
2022/05/29 06:02:58;;;;;;;10.50;4.90;;;;;;;16.07;55.80;99220.84;25137;1316;3027760;-66
2022/05/29 06:05:28;;;;;;;13.80;4.80;;;;;;;16.03;56.07;99217.14;25130;1316;3026126;-68
2022/05/29 06:07:58;;;;;;;14.70;5.20;;;;;;;16.08;55.67;99214.59;25059;1315;3026256;-69
2022/05/29 06:10:31;;;;;;;11.00;4.70;;;;;;;16.17;55.48;99209.59;25115;1316;3028799;-65
2022/05/29 06:13:05;;;;;;;11.60;4.60;;;;;;;16.14;55.22;99210.15;25103;1316;3026656;-71
2022/05/29 06:15:46;;;;;;;13.90;4.60;;;;;;;16.21;55.05;99213.66;25138;1316;3069799;-64
2022/05/29 06:18:16;;;;;;;12.90;4.20;;;;;;;16.26;54.83;99212.23;25122;1316;3048766;-67
2022/05/29 06:20:46;;;;;;;14.90;4.10;;;;;;;16.36;54.51;99210.39;25106;1313;3028473;-72
2022/05/29 06:23:17;;;;;;;11.80;4.50;;;;;;;16.38;54.17;99211.23;25144;1315;3027217;-71
2022/05/29 06:25:48;;;;;;;12.90;4.10;;;;;;;16.41;54.03;99207.27;25083;1316;3026570;-64
2022/05/29 06:28:18;;;;;;;14.00;4.30;;;;;;;16.39;53.81;99206.37;25108;1316;3026852;-71
2022/05/29 06:30:47;;;;;;;19.50;3.90;;;;;;;16.44;53.90;99205.21;25122;1316;3028281;-70
2022/05/29 06:33:23;;;;;;;22.50;4.00;;;;;;;16.53;54.06;99194.20;25157;1316;3027158;-69
2022/05/29 06:35:53;;;;;;;9.60;3.60;;;;;;;16.63;53.94;99195.44;25177;1316;3070686;-69
2022/05/29 06:38:23;;;;;;;13.70;4.50;;;;;;;16.65;54.06;99201.98;25163;1315;3026466;-70
2022/05/29 06:40:52;;;;;;;12.60;4.30;;;;;;;16.66;54.44;99206.95;25126;1316;3027413;-71
2022/05/29 06:43:22;;;;;;;10.60;4.20;;;;;;;16.89;53.95;99206.86;25128;1315;3028329;-65
2022/05/29 06:45:59;;;;;;;12.50;4.50;;;;;;;16.93;53.36;99203.17;25115;1315;3027308;-70
2022/05/29 06:48:35;;;;;;;16.30;5.20;;;;;;;16.96;52.76;99205.73;25153;1316;3050864;-70
2022/05/29 06:51:10;;;;;;;16.60;4.50;;;;;;;17.09;52.47;99206.80;25169;1315;3053164;-68
2022/05/29 06:53:46;;;;;;;13.60;4.90;;;;;;;17.02;52.85;99200.20;25089;1316;3052319;-66
2022/05/29 06:56:19;;;;;;;12.20;4.90;;;;;;;16.98;52.83;99198.29;25123;1315;3026922;-68
2022/05/29 06:58:49;;;;;;;13.50;5.10;;;;;;;17.15;52.68;99196.37;25166;1316;3026638;-68
2022/05/29 07:07:08;;;;;;;16.70;5.20;;;;;;;17.21;52.70;99205.36;25268;1315;3058699;-68
2022/05/29 07:09:40;;;;;;;15.10;5.10;;;;;;;17.32;52.67;99207.93;25117;1315;3050061;-66
2022/05/29 07:12:11;;;;;;;15.20;5.30;;;;;;;17.47;52.38;99214.00;25101;1315;3026904;-66
2022/05/29 07:15:00;;;;;;;17.00;6.30;;;;;;;17.54;51.99;99213.14;25071;1316;3026794;-69
2022/05/29 07:17:29;;;;;;;24.10;8.80;;;;;;;17.54;51.97;99217.92;25084;1316;3069549;-66
2022/05/29 07:20:02;;;;;;;19.40;8.20;;;;;;;17.43;52.29;99215.77;25124;1316;3027294;-67
2022/05/29 07:22:33;;;;;;;20.40;7.40;;;;;;;17.38;52.79;99213.88;25121;1315;3026777;-67
2022/05/29 07:25:05;;;;;;;29.60;8.00;;;;;;;17.47;52.59;99218.22;25133;1316;3027142;-68
2022/05/29 07:27:40;;;;;;;17.10;6.90;;;;;;;17.47;52.80;99220.19;25115;1316;3030124;-66
2022/05/29 07:30:12;;;;;;;26.70;7.60;;;;;;;17.48;53.07;99220.60;25121;1316;3049552;-67
2022/05/29 07:32:42;;;;;;;21.00;8.30;;;;;;;17.41;53.31;99219.63;25091;1316;3028876;-68
2022/05/29 07:35:11;;;;;;;19.60;9.40;;;;;;;17.44;53.08;99226.80;25105;1316;3027437;-70
2022/05/29 07:37:42;;;;;;;34.30;9.00;;;;;;;17.32;53.37;99225.96;25100;1316;3051297;-68
2022/05/29 07:40:14;;;;;;;27.60;10.30;;;;;;;17.26;54.04;99228.44;25146;1316;3027292;-66
2022/05/29 07:45:33;;;;;;;19.90;7.90;;;;;;;17.17;54.28;99222.92;25122;1315;3071622;-69
2022/05/29 07:48:03;;;;;;;21.10;7.70;;;;;;;17.09;54.96;99218.90;25085;1315;3026220;-65
2022/05/29 07:50:57;;;;;;;20.50;7.40;;;;;;;17.03;55.69;99223.48;25105;1316;3053068;-68
2022/05/29 07:53:27;;;;;;;17.10;6.80;;;;;;;16.93;56.49;99230.73;25150;1315;3026317;-68
2022/05/29 07:55:56;;;;;;;20.60;6.50;;;;;;;16.96;56.19;99239.39;25081;1315;3027150;-67
2022/05/29 07:58:25;;;;;;;14.50;5.10;;;;;;;16.99;56.11;99241.19;25074;1315;3028588;-68
2022/05/29 08:00:55;;;;;;;13.50;5.90;;;;;;;16.95;56.35;99241.22;25107;1315;3053180;-67
2022/05/29 08:03:24;;;;;;;20.70;6.10;;;;;;;16.93;56.24;99245.06;25048;1316;3026507;-65
2022/05/29 08:05:53;;;;;;;17.80;6.30;;;;;;;16.97;55.96;99236.41;25138;1315;3053950;-66
2022/05/29 08:08:22;;;;;;;17.20;6.50;;;;;;;17.00;56.31;99240.73;25001;1315;3027271;-68
2022/05/29 08:10:53;;;;;;;20.50;7.40;;;;;;;17.07;56.46;99244.16;25161;1315;3048521;-67
2022/05/29 08:13:24;;;;;;;20.50;7.30;;;;;;;17.06;57.01;99250.98;25092;1316;3031378;-67
2022/05/29 08:15:53;;;;;;;24.50;9.20;;;;;;;17.06;57.13;99253.80;25134;1316;3026612;-64
2022/05/29 08:18:22;;;;;;;17.40;8.00;;;;;;;17.13;56.50;99261.66;25074;1315;3029641;-70
2022/05/29 08:20:52;;;;;;;23.20;9.00;;;;;;;16.91;57.57;99261.89;25175;1315;3054739;-67
2022/05/29 08:23:21;;;;;;;20.00;7.50;;;;;;;16.97;57.23;99261.03;25120;1315;3026591;-71
2022/05/29 08:31:27;;;;;;;19.40;7.00;;;;;;;16.85;57.14;99263.64;25245;1315;3051293;-67
2022/05/29 08:33:56;;;;;;;22.00;7.90;;;;;;;16.95;57.22;99272.50;25154;1315;3026816;-67
2022/05/29 08:36:26;;;;;;;17.90;6.90;;;;;;;16.94;57.24;99277.23;25092;1316;3055384;-70
2022/05/29 08:38:56;;;;;;;18.50;6.70;;;;;;;17.00;57.11;99272.79;25093;1315;3026486;-69
2022/05/29 08:41:42;;;;;;;17.20;6.90;;;;;;;16.97;57.00;99275.69;25171;1316;3026503;-67
2022/05/29 08:44:13;;;;;;;20.50;8.50;;;;;;;16.96;57.27;99285.48;25187;1315;3049539;-66
2022/05/29 08:46:52;;;;;;;23.70;8.20;;;;;;;16.89;58.00;99287.20;25169;1313;3026334;-68
2022/05/29 08:49:24;;;;;;;25.50;6.80;;;;;;;16.83;58.64;99291.73;25125;1316;3051251;-69
2022/05/29 08:52:04;;;;;;;11.10;4.60;;;;;;;16.71;58.73;99299.87;25142;1315;3026569;-64
2022/05/29 08:54:50;;;;;;;11.00;5.10;;;;;;;16.44;59.86;99300.17;25204;1316;3049003;-69
2022/05/29 08:57:48;;;;;;;9.80;4.70;;;;;;;16.46;59.82;99307.54;25208;1314;3052289;-67
2022/05/29 09:00:35;;;;;;;19.30;4.50;;;;;;;16.38;60.23;99311.75;25195;1315;3055422;-65
2022/05/29 09:03:30;;;;;;;15.70;5.50;;;;;;;16.31;60.52;99319.49;25200;1315;3059798;-67
2022/05/29 09:06:38;;;;;;;19.50;4.60;;;;;;;16.31;60.69;99322.08;25150;1315;3049720;-67
2022/05/29 09:09:19;;;;;;;17.10;4.80;;;;;;;16.11;61.21;99327.58;25192;1315;3053950;-64
2022/05/29 09:11:54;;;;;;;16.00;4.20;;;;;;;15.97;61.55;99328.09;25211;1315;3053690;-66
2022/05/29 09:14:36;;;;;;;10.80;4.70;;;;;;;15.91;61.68;99332.46;25182;1317;3026585;-68
2022/05/29 09:17:13;;;;;;;11.50;4.40;;;;;;;15.87;61.64;99346.75;25200;1315;3049394;-67
2022/05/29 09:20:01;;;;;;;8.40;4.40;;;;;;;15.81;61.94;99350.62;25239;1315;3052502;-68
2022/05/29 09:22:39;;;;;;;8.20;3.90;;;;;;;15.75;62.34;99350.88;25121;1316;3052227;-71
2022/05/29 09:25:13;;;;;;;18.30;5.70;;;;;;;15.73;62.71;99353.50;24740;1315;3669687;-69
2022/05/29 09:27:44;;;;;;;18.10;6.90;;;;;;;15.58;63.27;99350.69;25179;1315;3052328;-70
2022/05/29 09:30:13;;;;;;;21.30;7.10;;;;;;;15.58;63.76;99356.19;25268;1315;3026381;-67
2022/05/29 09:33:05;;;;;;;23.20;8.30;;;;;;;15.50;64.57;99350.69;25184;1315;3028847;-68
2022/05/29 09:35:47;;;;;;;13.70;5.90;;;;;;;15.74;64.51;99345.86;25188;1316;3072090;-67
2022/05/29 09:38:31;;;;;;;11.70;5.30;;;;;;;15.93;64.28;99352.09;25175;1316;3049826;-66
2022/05/29 09:41:28;;;;;;;13.70;4.60;;;;;;;15.73;65.31;99357.25;25204;1314;3055151;-66
2022/05/29 09:44:15;;;;;;;8.40;4.00;;;;;;;15.93;64.65;99363.35;25174;1315;3053217;-66
2022/05/29 09:46:50;;;;;;;7.80;4.10;;;;;;;15.96;63.92;99376.19;25160;1315;3056842;-67
2022/05/29 09:49:45;;;;;;;12.20;4.40;;;;;;;15.96;63.39;99374.09;25160;1315;3026256;-69
2022/05/29 09:52:31;;;;;;;10.50;3.90;;;;;;;15.85;63.89;99380.05;25175;1315;3055229;-67
2022/05/29 09:55:04;;;;;;;11.80;5.30;;;;;;;15.96;62.96;99385.54;25202;1316;3053938;-71
2022/05/29 09:57:49;;;;;;;11.60;4.30;;;;;;;15.84;63.55;99386.19;25176;1315;3026509;-68
2022/05/29 10:00:25;;;;;;;11.00;4.50;;;;;;;15.70;64.22;99391.53;25228;1316;3048467;-70
2022/05/29 10:02:55;;;;;;;7.70;3.70;;;;;;;15.70;64.40;99386.95;25139;1315;3053191;-67
2022/05/29 10:05:29;;;;;;;10.50;3.40;;;;;;;15.79;64.16;99380.27;25113;1316;3026444;-64
2022/05/29 10:07:59;;;;;;;12.50;3.70;;;;;;;16.05;63.68;99375.24;25163;1315;3049247;-71
2022/05/29 10:10:30;;;;;;;8.60;3.70;;;;;;;16.15;63.10;99367.48;25220;1315;3028997;-72
2022/05/29 10:13:00;;;;;;;19.70;4.40;;;;;;;16.22;62.48;99366.19;25202;1316;3027201;-72
2022/05/29 10:15:29;;;;;;;7.10;3.70;;;;;;;16.26;62.42;99358.27;25182;1316;3027150;-70
2022/05/29 10:18:01;;;;;;;8.10;3.40;;;;;;;16.47;61.14;99354.13;25156;1316;3028271;-72
2022/05/29 10:20:37;;;;;;;8.60;3.90;;;;;;;16.55;60.52;99352.95;25141;1316;3053105;-67
2022/05/29 10:23:11;;;;;;;8.20;3.50;;;;;;;16.33;60.73;99353.27;25168;1315;3055294;-66
2022/05/29 10:26:01;;;;;;;11.10;4.20;;;;;;;16.46;60.43;99361.85;25222;1316;3050100;-71
2022/05/29 10:28:34;;;;;;;7.30;3.00;;;;;;;16.28;60.91;99362.48;25131;1316;3052594;-64
2022/05/29 10:31:05;;;;;;;11.90;3.50;;;;;;;16.33;60.83;99355.73;25156;1316;3026895;-69
2022/05/29 10:33:35;;;;;;;11.40;4.50;;;;;;;16.18;61.38;99348.15;25187;1315;3027020;-73
2022/05/29 10:36:17;;;;;;;9.60;3.40;;;;;;;16.16;61.31;99336.68;25189;1316;3026203;-73
2022/05/29 10:38:47;;;;;;;12.50;4.40;;;;;;;16.24;61.11;99335.27;25153;1316;3053194;-70
2022/05/29 10:41:30;;;;;;;12.30;4.90;;;;;;;16.19;61.57;99339.46;25149;1318;3028310;-71
2022/05/29 10:43:59;;;;;;;12.80;4.10;;;;;;;16.24;60.88;99334.73;25191;1316;3056209;-71
2022/05/29 10:46:49;;;;;;;11.00;4.20;;;;;;;16.18;61.17;99331.41;25148;1318;3027401;-66
2022/05/29 10:50:22;;;;;;;13.40;5.90;;;;;;;16.24;61.11;99334.05;31564;1319;3026183;-71
2022/05/29 10:53:25;;;;;;;22.70;8.50;;;;;;;16.51;60.20;99338.05;24993;1322;3026827;-69
2022/05/29 10:56:25;;;;;;;21.10;7.50;;;;;;;16.75;58.92;99340.78;25038;1318;3054925;-70
2022/05/29 10:58:57;;;;;;;18.40;7.10;;;;;;;16.79;58.78;99346.24;25086;1319;3059147;-70
2022/05/29 11:04:51;;;;;;;20.50;7.50;;;;;;;16.96;58.71;99341.11;24950;1315;3300873;-70
2022/05/29 11:07:35;;;;;;;20.70;9.30;;;;;;;17.02;58.87;99343.02;25162;1315;3051204;-72
2022/05/29 11:10:20;;;;;;;18.80;7.80;;;;;;;17.14;58.58;99346.70;25170;1315;3068496;-67
2022/05/29 11:13:18;;;;;;;24.80;8.80;;;;;;;17.28;58.10;99339.05;25120;1316;3049915;-69
2022/05/29 11:15:54;;;;;;;17.70;6.30;;;;;;;17.25;57.97;99334.19;25155;1315;3052069;-67
2022/05/29 11:18:53;;;;;;;14.00;5.20;;;;;;;17.28;57.75;99336.05;25142;1316;3054002;-67
2022/05/29 11:21:43;;;;;;;14.60;5.80;;;;;;;17.24;57.68;99337.50;25195;1315;3056723;-71
2022/05/29 11:24:35;;;;;;;15.40;5.40;;;;;;;17.22;57.76;99343.55;25162;1315;3052521;-72
2022/05/29 11:27:16;;;;;;;13.00;4.50;;;;;;;17.39;57.41;99346.40;25155;1315;3051789;-66
2022/05/29 11:29:55;;;;;;;16.60;4.30;;;;;;;17.55;57.10;99337.50;25102;1316;3051085;-67
2022/05/29 11:32:40;;;;;;;10.00;4.20;;;;;;;17.66;56.75;99329.93;25137;1315;3068962;-70
2022/05/29 11:35:24;;;;;;;13.20;3.70;;;;;;;17.93;55.46;99325.31;25174;1315;3049275;-75
2022/05/29 11:38:14;;;;;;;7.50;3.40;;;;;;;18.06;54.63;99333.90;25108;1315;3052587;-69
2022/05/29 11:40:46;;;;;;;10.20;3.10;;;;;;;18.13;54.13;99333.41;25133;1315;3053884;-72
2022/05/29 11:43:32;;;;;;;9.90;3.10;;;;;;;18.22;53.90;99338.08;25150;1315;3026835;-75
2022/05/29 11:52:59;;;;;;;7.50;2.60;;;;;;;18.21;53.86;99336.55;25470;1316;3050479;-67
2022/05/29 11:55:38;;;;;;;5.70;2.70;;;;;;;17.99;54.79;99338.70;25462;1316;3069014;-70
2022/05/29 11:58:23;;;;;;;10.20;2.90;;;;;;;18.09;54.38;99331.33;25325;1315;3050318;-68
2022/05/29 12:01:15;;;;;;;8.90;2.90;;;;;;;18.10;54.45;99335.97;25187;1315;3054764;-72
2022/05/29 12:03:53;;;;;;;9.20;2.90;;;;;;;17.93;55.60;99344.52;25107;1316;3054669;-66
2022/05/29 12:06:37;;;;;;;16.00;4.50;;;;;;;17.81;56.41;99341.52;25119;1316;3058804;-66
2022/05/29 12:09:17;;;;;;;10.60;3.30;;;;;;;17.80;56.70;99336.81;25147;1316;3052131;-67
2022/05/29 12:12:01;;;;;;;11.00;3.30;;;;;;;17.74;56.34;99331.74;25022;1315;3052902;-64
2022/05/29 12:14:32;;;;;;;;;;;;;;;17.68;56.34;99329.58;25199;1316;3051031;-72
2022/05/29 12:17:06;;;;;;;14.00;3.20;;;;;;;17.63;56.07;99333.10;25100;1315;3028060;-69
2022/05/29 12:19:42;;;;;;;5.60;3.00;;;;;;;17.69;55.51;99333.56;25135;1316;3048985;-65
2022/05/29 12:22:12;;;;;;;12.40;2.70;;;;;;;17.70;55.26;99329.57;25140;1316;3051687;-68
2022/05/29 12:24:43;;;;;;;7.30;3.40;;;;;;;17.80;55.47;99327.81;25116;1316;3026617;-66